Station History

Weather Underground - logo

Station Historical Data
Daily Summary for February 9, 2018 Units:  English    Metric   Both
« Previous Day
Next Day »
Daily Weekly Monthly Yearly Custom
  High: Low: Average:
Temperature: 74.5 °F 44.0 °F 57.8 °F
Dew Point: 53.2 °F 41.5 °F 47.3 °F
Humidity: 93 % 40 % 71 %
Wind Speed: 3.5 mph 0.0 mph 0.4 mph
Wind Gust: 3.5 mph - -
Wind:- - WSW
Pressure: 30.12 in 29.95 in -
Precipitation: 0.00 in    
Historical Graphs
 
 
Tabular Data for February 9, 2018
Time Temperature Dew Point Pressure Wind Wind Speed Wind Gust Humidity Rainfall Rate (Hourly)
00:04 49.0 °F 45.3 °F 30.11 in Calm     87 % 0.00 in
00:09 49.5 °F 45.8 °F 30.12 in Calm     87 % 0.00 in
00:14 49.8 °F 45.8 °F 30.12 in Calm     86 % 0.00 in
00:19 49.0 °F 44.7 °F 30.12 in Calm     85 % 0.00 in
00:24 48.3 °F 44.6 °F 30.11 in Calm     87 % 0.00 in
00:29 48.1 °F 44.7 °F 30.12 in Calm     88 % 0.00 in
00:34 48.4 °F 45.3 °F 30.11 in Calm     89 % 0.00 in
00:39 48.5 °F 45.1 °F 30.12 in Calm     88 % 0.00 in
00:44 48.3 °F 44.6 °F 30.11 in Calm     87 % 0.00 in
00:49 48.1 °F 44.7 °F 30.11 in Calm     88 % 0.00 in
00:54 47.9 °F 44.2 °F 30.11 in Calm     87 % 0.00 in
00:59 47.7 °F 44.6 °F 30.11 in Calm     89 % 0.00 in
01:04 47.9 °F 44.8 °F 30.11 in Calm     89 % 0.00 in
01:09 47.9 °F 44.8 °F 30.11 in Calm     89 % 0.00 in
01:15 47.8 °F 44.1 °F 30.11 in Calm     87 % 0.00 in
01:20 47.5 °F 44.1 °F 30.11 in Calm     88 % 0.00 in
01:25 47.3 °F 43.9 °F 30.11 in Calm     88 % 0.00 in
01:30 47.1 °F 43.7 °F 30.11 in Calm     88 % 0.00 in
01:35 46.9 °F 43.5 °F 30.11 in Calm     88 % 0.00 in
01:40 46.7 °F 43.3 °F 30.11 in Calm     88 % 0.00 in
01:45 46.7 °F 43.3 °F 30.10 in Calm     88 % 0.00 in
01:50 46.8 °F 43.7 °F 30.10 in Calm     89 % 0.00 in
01:55 47.1 °F 44.0 °F 30.10 in Calm     89 % 0.00 in
02:00 47.3 °F 44.2 °F 30.11 in Calm     89 % 0.00 in
02:05 47.5 °F 44.4 °F 30.11 in Calm     89 % 0.00 in
02:10 47.7 °F 44.6 °F 30.10 in Calm     89 % 0.00 in
02:15 47.6 °F 44.2 °F 30.10 in Calm     88 % 0.00 in
02:20 47.4 °F 44.0 °F 30.10 in Calm     88 % 0.00 in
02:25 47.1 °F 43.4 °F 30.10 in Calm     87 % 0.00 in
02:30 46.8 °F 43.1 °F 30.10 in Calm     87 % 0.00 in
02:35 46.5 °F 43.1 °F 30.10 in Calm     88 % 0.00 in
02:40 46.2 °F 42.8 °F 30.09 in Calm     88 % 0.00 in
02:45 46.1 °F 42.7 °F 30.09 in Calm     88 % 0.00 in
02:50 45.9 °F 42.8 °F 30.09 in Calm     89 % 0.00 in
02:55 45.8 °F 42.7 °F 30.09 in Calm     89 % 0.00 in
03:00 45.3 °F 42.0 °F 30.09 in Calm     88 % 0.00 in
03:05 44.9 °F 41.9 °F 30.09 in Calm     89 % 0.00 in
03:10 44.7 °F 41.7 °F 30.09 in Calm     89 % 0.00 in
03:15 44.6 °F 41.8 °F 30.09 in Calm     90 % 0.00 in
03:20 44.5 °F 41.7 °F 30.09 in Calm     90 % 0.00 in
03:25 44.5 °F 41.7 °F 30.10 in Calm     90 % 0.00 in
03:31 44.4 °F 41.7 °F 30.10 in Calm     90 % 0.00 in
03:36 44.2 °F 41.5 °F 30.10 in Calm     90 % 0.00 in
03:41 44.2 °F 41.7 °F 30.10 in Calm     91 % 0.00 in
03:46 44.4 °F 41.9 °F 30.10 in Calm     91 % 0.00 in
03:51 44.3 °F 41.8 °F 30.10 in Calm     91 % 0.00 in
03:56 44.6 °F 42.4 °F 30.09 in Calm     92 % 0.00 in
04:01 44.9 °F 42.4 °F 30.09 in Calm     91 % 0.00 in
04:06 45.2 °F 42.7 °F 30.09 in Calm     91 % 0.00 in
04:11 45.3 °F 42.5 °F 30.09 in Calm     90 % 0.00 in
04:16 45.3 °F 42.5 °F 30.09 in Calm     90 % 0.00 in
04:21 45.4 °F 42.6 °F 30.09 in Calm     90 % 0.00 in
04:26 45.5 °F 42.7 °F 30.09 in Calm     90 % 0.00 in
04:31 45.3 °F 42.5 °F 30.09 in Calm     90 % 0.00 in
04:36 45.1 °F 42.3 °F 30.09 in Calm     90 % 0.00 in
04:41 45.1 °F 42.6 °F 30.09 in Calm     91 % 0.00 in
04:46 44.9 °F 42.4 °F 30.09 in Calm     91 % 0.00 in
04:51 44.8 °F 42.3 °F 30.09 in Calm     91 % 0.00 in
04:56 44.9 °F 42.4 °F 30.08 in Calm     91 % 0.00 in
05:01 45.0 °F 42.5 °F 30.08 in Calm     91 % 0.00 in
05:06 44.7 °F 42.2 °F 30.08 in Calm     91 % 0.00 in
05:11 44.5 °F 41.7 °F 30.08 in Calm     90 % 0.00 in
05:16 44.3 °F 41.6 °F 30.08 in Calm     90 % 0.00 in
05:21 44.6 °F 42.4 °F 30.08 in Calm     92 % 0.00 in
05:26 44.7 °F 42.5 °F 30.08 in Calm     92 % 0.00 in
05:31 44.5 °F 42.3 °F 30.08 in Calm     92 % 0.00 in
05:36 44.4 °F 42.2 °F 30.08 in Calm     92 % 0.00 in
05:41 44.4 °F 42.2 °F 30.08 in Calm     92 % 0.00 in
05:46 44.3 °F 42.1 °F 30.08 in Calm     92 % 0.00 in
05:51 44.3 °F 42.1 °F 30.08 in Calm     92 % 0.00 in
05:56 44.3 °F 42.1 °F 30.08 in Calm     92 % 0.00 in
06:01 44.3 °F 42.1 °F 30.08 in Calm     92 % 0.00 in
06:06 44.3 °F 42.1 °F 30.08 in Calm     92 % 0.00 in
06:11 44.3 °F 42.1 °F 30.08 in Calm     92 % 0.00 in
06:16 44.3 °F 42.1 °F 30.08 in Calm     92 % 0.00 in
06:21 44.3 °F 42.1 °F 30.08 in Calm     92 % 0.00 in
06:26 44.2 °F 42.0 °F 30.08 in Calm     92 % 0.00 in
06:31 44.1 °F 41.9 °F 30.08 in Calm     92 % 0.00 in
06:36 44.0 °F 41.8 °F 30.08 in Calm     92 % 0.00 in
06:41 44.1 °F 41.9 °F 30.08 in Calm     92 % 0.00 in
06:47 44.4 °F 42.5 °F 30.08 in Calm     93 % 0.00 in
06:51 44.9 °F 43.0 °F 30.08 in Calm     93 % 0.00 in
06:56 45.1 °F 43.2 °F 30.08 in Calm     93 % 0.00 in
07:02 45.1 °F 42.9 °F 30.09 in Calm     92 % 0.00 in
07:07 45.0 °F 42.8 °F 30.08 in Calm     92 % 0.00 in
07:12 44.9 °F 42.7 °F 30.09 in Calm     92 % 0.00 in
07:17 45.1 °F 42.9 °F 30.08 in Calm     92 % 0.00 in
07:22 45.3 °F 43.1 °F 30.08 in Calm     92 % 0.00 in
07:27 45.6 °F 43.7 °F 30.09 in Calm     93 % 0.00 in
07:32 46.0 °F 43.8 °F 30.09 in Calm     92 % 0.00 in
07:37 46.5 °F 44.3 °F 30.09 in Calm     92 % 0.00 in
07:42 46.8 °F 44.3 °F 30.09 in Calm     91 % 0.00 in
07:47 47.4 °F 44.9 °F 30.10 in Calm     91 % 0.00 in
07:52 48.1 °F 45.6 °F 30.10 in Calm     91 % 0.00 in
07:57 48.8 °F 46.0 °F 30.10 in Calm     90 % 0.00 in
08:02 49.7 °F 46.6 °F 30.10 in Calm     89 % 0.00 in
08:07 51.1 °F 47.7 °F 30.10 in Calm     88 % 0.00 in
08:12 52.7 °F 48.6 °F 30.10 in Calm     86 % 0.00 in
08:17 54.5 °F 49.1 °F 30.11 in Calm     82 % 0.00 in
08:22 55.6 °F 49.5 °F 30.11 in Calm     80 % 0.00 in
08:27 56.6 °F 50.2 °F 30.11 in Calm     79 % 0.00 in
08:32 57.4 °F 49.5 °F 30.11 in Calm     75 % 0.00 in
08:37 57.8 °F 49.9 °F 30.12 in Calm     75 % 0.00 in
08:42 58.3 °F 50.0 °F 30.12 in Calm     74 % 0.00 in
08:47 57.8 °F 49.6 °F 30.12 in Calm     74 % 0.00 in
08:52 57.9 °F 49.3 °F 30.12 in Calm     73 % 0.00 in
08:57 58.6 °F 50.0 °F 30.12 in Calm     73 % 0.00 in
09:02 59.4 °F 50.0 °F 30.12 in Calm     71 % 0.00 in
09:07 60.0 °F 49.8 °F 30.11 in Calm     69 % 0.00 in
09:12 60.5 °F 49.5 °F 30.11 in Calm     67 % 0.00 in
09:17 60.8 °F 49.8 °F 30.11 in Calm     67 % 0.00 in
09:22 61.4 °F 49.5 °F 30.11 in Calm     65 % 0.00 in
09:27 61.6 °F 49.3 °F 30.11 in Calm     64 % 0.00 in
09:32 62.1 °F 48.9 °F 30.11 in Calm     62 % 0.00 in
09:37 62.0 °F 48.4 °F 30.11 in Calm     61 % 0.00 in
09:42 62.0 °F 48.8 °F 30.10 in South 1.2 mph   62 % 0.00 in
09:47 62.6 °F 49.0 °F 30.10 in Calm     61 % 0.00 in
09:52 63.3 °F 49.2 °F 30.10 in Calm     60 % 0.00 in
09:57 63.3 °F 48.7 °F 30.10 in Calm     59 % 0.00 in
10:02 62.9 °F 48.8 °F 30.10 in Calm     60 % 0.00 in
10:07 63.6 °F 49.0 °F 30.10 in NNW 1.2 mph 1.2 mph 59 % 0.00 in
10:12 63.8 °F 48.3 °F 30.09 in Calm     57 % 0.00 in
10:17 64.2 °F 50.0 °F 30.09 in Calm     60 % 0.00 in
10:22 65.3 °F 50.1 °F 30.09 in SSW 1.2 mph 1.2 mph 58 % 0.00 in
10:27 65.6 °F 50.0 °F 30.09 in SE 2.0 mph 2.0 mph 57 % 0.00 in
10:32 65.9 °F 50.2 °F 30.09 in SE 1.2 mph   57 % 0.00 in
10:37 66.1 °F 50.9 °F 30.09 in Calm     58 % 0.00 in
10:42 66.7 °F 51.0 °F 30.09 in SSW 2.0 mph 2.0 mph 57 % 0.00 in
10:47 67.0 °F 50.3 °F 30.09 in Calm     55 % 0.00 in
10:52 67.2 °F 50.5 °F 30.08 in NNW 2.3 mph 2.3 mph 55 % 0.00 in
10:57 67.5 °F 51.7 °F 30.08 in SSE 2.3 mph   57 % 0.00 in
11:02 67.3 °F 51.1 °F 30.08 in NW 1.2 mph   56 % 0.00 in
11:07 66.9 °F 50.2 °F 30.08 in NNW 1.2 mph 1.2 mph 55 % 0.00 in
11:12 67.1 °F 51.4 °F 30.08 in SW 1.0 mph 1.0 mph 57 % 0.00 in
11:17 67.4 °F 51.2 °F 30.07 in West 1.2 mph 1.2 mph 56 % 0.00 in
11:22 67.3 °F 50.6 °F 30.08 in South 2.3 mph 2.3 mph 55 % 0.00 in
11:27 67.3 °F 50.6 °F 30.07 in SW 2.3 mph   55 % 0.00 in
11:32 67.8 °F 51.0 °F 30.07 in NW 2.3 mph 2.3 mph 55 % 0.00 in
11:37 67.9 °F 51.1 °F 30.07 in NW 2.3 mph 2.3 mph 55 % 0.00 in
11:42 68.3 °F 51.5 °F 30.06 in WNW 3.5 mph 3.5 mph 55 % 0.00 in
11:47 68.8 °F 52.5 °F 30.06 in SSE 1.2 mph 1.2 mph 56 % 0.00 in
11:52 69.6 °F 51.7 °F 30.06 in SSE 3.5 mph 3.5 mph 53 % 0.00 in
11:57 69.9 °F 52.5 °F 30.06 in NNW 2.0 mph 2.0 mph 54 % 0.00 in
12:02 69.9 °F 52.5 °F 30.05 in Calm   0.1 mph 54 % 0.00 in
12:07 70.3 °F 52.9 °F 30.05 in SSE 1.2 mph   54 % 0.00 in
12:12 70.8 °F 51.2 °F 30.04 in NW 2.3 mph 2.3 mph 50 % 0.00 in
12:17 71.4 °F 52.3 °F 30.04 in ESE 2.3 mph 2.3 mph 51 % 0.00 in
12:22 71.9 °F 52.2 °F 30.04 in North 2.3 mph   50 % 0.00 in
12:27 72.4 °F 53.2 °F 30.04 in Calm     51 % 0.00 in
12:33 72.7 °F 53.0 °F 30.04 in ESE 1.2 mph   50 % 0.00 in
12:38 72.7 °F 51.9 °F 30.03 in NW 2.3 mph 2.3 mph 48 % 0.00 in
12:43 72.9 °F 52.1 °F 30.03 in SSE 1.2 mph 1.2 mph 48 % 0.00 in
12:48 73.4 °F 53.1 °F 30.03 in SE 1.2 mph   49 % 0.00 in
12:53 73.7 °F 51.6 °F 30.02 in ESE 1.2 mph 1.2 mph 46 % 0.00 in
12:58 73.6 °F 52.1 °F 30.02 in NW 3.5 mph 3.5 mph 47 % 0.00 in
13:03 73.3 °F 51.8 °F 30.02 in NW 3.5 mph 3.5 mph 47 % 0.00 in
13:08 73.3 °F 51.8 °F 30.01 in West 1.2 mph   47 % 0.00 in
13:13 73.2 °F 52.3 °F 30.01 in ESE 1.2 mph 1.2 mph 48 % 0.00 in
13:18 73.5 °F 51.4 °F 30.01 in NW 2.3 mph 2.3 mph 46 % 0.00 in
13:23 73.6 °F 52.1 °F 30.00 in NNW 1.2 mph   47 % 0.00 in
13:28 73.8 °F 52.3 °F 30.00 in Calm     47 % 0.00 in
13:33 73.6 °F 51.5 °F 30.00 in WNW 3.5 mph 3.5 mph 46 % 0.00 in
13:38 73.3 °F 50.7 °F 30.00 in NNW 2.3 mph 2.3 mph 45 % 0.00 in
13:43 73.5 °F 50.9 °F 29.99 in NW 2.3 mph 2.3 mph 45 % 0.00 in
13:48 73.9 °F 51.8 °F 29.99 in East 1.2 mph   46 % 0.00 in
13:53 74.4 °F 51.1 °F 29.99 in Calm     44 % 0.00 in
13:58 74.5 °F 51.2 °F 29.99 in NW 1.2 mph 1.2 mph 44 % 0.00 in
14:03 74.4 °F 51.1 °F 29.99 in West 1.2 mph 1.2 mph 44 % 0.00 in
14:08 74.4 °F 51.7 °F 29.98 in West 1.2 mph   45 % 0.00 in
14:13 74.1 °F 50.8 °F 29.98 in Calm   0.1 mph 44 % 0.00 in
14:18 73.9 °F 50.6 °F 29.98 in SW 3.5 mph 3.5 mph 44 % 0.00 in
14:23 74.0 °F 51.3 °F 29.98 in NW 2.3 mph 2.3 mph 45 % 0.00 in
14:28 73.9 °F 50.6 °F 29.98 in Calm     44 % 0.00 in
14:33 74.0 °F 49.4 °F 29.98 in NW 1.2 mph 1.2 mph 42 % 0.00 in
14:38 74.1 °F 50.2 °F 29.98 in NW 2.3 mph 2.3 mph 43 % 0.00 in
14:43 74.0 °F 50.1 °F 29.98 in WNW 2.3 mph 2.3 mph 43 % 0.00 in
14:48 74.0 °F 49.4 °F 29.98 in NNW 1.2 mph   42 % 0.00 in
14:53 74.3 °F 49.7 °F 29.97 in Calm     42 % 0.00 in
14:58 74.5 °F 49.2 °F 29.97 in NW 1.0 mph 1.0 mph 41 % 0.00 in
15:03 74.2 °F 49.0 °F 29.97 in West 2.3 mph 2.3 mph 41 % 0.00 in
15:08 74.0 °F 48.8 °F 29.97 in Calm     41 % 0.00 in
15:13 73.9 °F 49.4 °F 29.97 in NW 2.3 mph 2.3 mph 42 % 0.00 in
15:18 73.9 °F 48.7 °F 29.97 in WNW 1.2 mph   41 % 0.00 in
15:23 73.9 °F 49.4 °F 29.97 in Calm     42 % 0.00 in
15:28 73.8 °F 49.3 °F 29.97 in West 2.0 mph 2.0 mph 42 % 0.00 in
15:33 73.6 °F 48.4 °F 29.97 in NW 1.2 mph   41 % 0.00 in
15:38 73.5 °F 48.4 °F 29.96 in East 1.0 mph 1.0 mph 41 % 0.00 in
15:43 73.4 °F 48.9 °F 29.96 in Calm     42 % 0.00 in
15:48 73.5 °F 47.7 °F 29.96 in NW 1.2 mph 1.2 mph 40 % 0.00 in
15:53 73.5 °F 49.0 °F 29.96 in NW 1.2 mph   42 % 0.00 in
15:58 73.4 °F 48.9 °F 29.96 in NW 1.2 mph   42 % 0.00 in
16:03 73.3 °F 48.8 °F 29.96 in WNW 1.2 mph   42 % 0.00 in
16:08 73.2 °F 48.7 °F 29.96 in WNW 1.2 mph   42 % 0.00 in
16:13 73.1 °F 49.3 °F 29.96 in Calm     43 % 0.00 in
16:18 72.9 °F 48.5 °F 29.96 in WNW 1.2 mph   42 % 0.00 in
16:23 72.7 °F 48.3 °F 29.96 in Calm     42 % 0.00 in
16:28 72.6 °F 48.8 °F 29.96 in WNW 1.0 mph 1.0 mph 43 % 0.00 in
16:33 72.5 °F 48.7 °F 29.96 in Calm     43 % 0.00 in
16:38 72.3 °F 49.2 °F 29.96 in Calm     44 % 0.00 in
16:43 72.1 °F 49.0 °F 29.96 in Calm     44 % 0.00 in
16:49 71.9 °F 48.8 °F 29.96 in Calm     44 % 0.00 in
16:54 71.7 °F 48.6 °F 29.96 in Calm     44 % 0.00 in
16:59 71.4 °F 48.3 °F 29.96 in Calm     44 % 0.00 in
17:04 71.0 °F 48.6 °F 29.96 in Calm     45 % 0.00 in
17:09 70.5 °F 50.4 °F 29.96 in Calm     49 % 0.00 in
17:14 69.9 °F 50.4 °F 29.96 in Calm     50 % 0.00 in
17:19 69.3 °F 50.4 °F 29.96 in Calm     51 % 0.00 in
17:24 68.7 °F 50.4 °F 29.96 in Calm     52 % 0.00 in
17:29 68.2 °F 50.9 °F 29.95 in Calm     54 % 0.00 in
17:34 67.5 °F 50.8 °F 29.95 in Calm     55 % 0.00 in
17:39 66.7 °F 50.5 °F 29.96 in Calm     56 % 0.00 in
17:44 66.3 °F 49.6 °F 29.96 in Calm     55 % 0.00 in
17:49 65.7 °F 49.6 °F 29.96 in Calm     56 % 0.00 in
17:54 65.3 °F 49.7 °F 29.96 in Calm     57 % 0.00 in
17:59 64.8 °F 49.2 °F 29.96 in Calm     57 % 0.00 in
18:04 64.4 °F 49.8 °F 29.96 in Calm     59 % 0.00 in
18:09 63.9 °F 48.8 °F 29.96 in Calm     58 % 0.00 in
18:14 63.4 °F 48.8 °F 29.96 in Calm     59 % 0.00 in
18:19 63.1 °F 49.0 °F 29.96 in Calm     60 % 0.00 in
18:24 62.7 °F 49.5 °F 29.96 in Calm     62 % 0.00 in
18:29 62.2 °F 49.0 °F 29.96 in Calm     62 % 0.00 in
18:34 61.8 °F 49.1 °F 29.97 in Calm     63 % 0.00 in
18:39 61.7 °F 49.4 °F 29.97 in Calm     64 % 0.00 in
18:44 61.5 °F 48.8 °F 29.97 in Calm     63 % 0.00 in
18:49 61.2 °F 48.9 °F 29.97 in Calm     64 % 0.00 in
18:54 61.0 °F 48.7 °F 29.97 in Calm     64 % 0.00 in
18:59 60.8 °F 48.5 °F 29.97 in Calm     64 % 0.00 in
19:04 60.6 °F 48.8 °F 29.97 in Calm     65 % 0.00 in
19:09 60.5 °F 48.7 °F 29.97 in Calm     65 % 0.00 in
19:14 60.4 °F 49.0 °F 29.97 in Calm     66 % 0.00 in
19:19 60.3 °F 48.9 °F 29.97 in Calm     66 % 0.00 in
19:24 60.1 °F 49.1 °F 29.97 in Calm     67 % 0.00 in
19:29 59.9 °F 48.9 °F 29.97 in Calm     67 % 0.00 in
19:34 59.6 °F 49.0 °F 29.97 in Calm     68 % 0.00 in
19:39 59.3 °F 48.7 °F 29.97 in Calm     68 % 0.00 in
19:44 59.0 °F 48.8 °F 29.97 in Calm     69 % 0.00 in
19:49 58.8 °F 49.0 °F 29.97 in Calm     70 % 0.00 in
19:54 58.7 °F 49.3 °F 29.97 in Calm     71 % 0.00 in
19:59 58.6 °F 49.6 °F 29.97 in Calm     72 % 0.00 in
20:04 58.3 °F 49.7 °F 29.97 in Calm     73 % 0.00 in
20:09 57.9 °F 49.3 °F 29.97 in Calm     73 % 0.00 in
20:14 57.5 °F 48.9 °F 29.97 in Calm     73 % 0.00 in
20:19 56.9 °F 48.7 °F 29.97 in Calm     74 % 0.00 in
20:24 56.4 °F 48.6 °F 29.97 in Calm     75 % 0.00 in
20:29 55.8 °F 48.7 °F 29.98 in Calm     77 % 0.00 in
20:34 55.4 °F 48.3 °F 29.97 in Calm     77 % 0.00 in
20:39 55.1 °F 48.4 °F 29.97 in Calm     78 % 0.00 in
20:44 55.1 °F 48.7 °F 29.97 in Calm     79 % 0.00 in
20:49 55.1 °F 48.7 °F 29.98 in Calm     79 % 0.00 in
20:54 55.2 °F 48.8 °F 29.98 in Calm     79 % 0.00 in
20:59 55.2 °F 48.8 °F 29.98 in Calm     79 % 0.00 in
21:04 55.1 °F 48.4 °F 29.98 in Calm     78 % 0.00 in
21:09 55.0 °F 48.6 °F 29.98 in Calm     79 % 0.00 in
21:14 55.0 °F 48.6 °F 29.98 in Calm     79 % 0.00 in
21:19 55.1 °F 48.7 °F 29.98 in Calm     79 % 0.00 in
21:24 55.1 °F 48.4 °F 29.98 in Calm     78 % 0.00 in
21:29 55.0 °F 48.3 °F 29.98 in Calm     78 % 0.00 in
21:34 54.7 °F 48.0 °F 29.98 in Calm     78 % 0.00 in
21:39 54.3 °F 47.6 °F 29.97 in Calm     78 % 0.00 in
21:44 53.9 °F 47.5 °F 29.97 in Calm     79 % 0.00 in
21:49 53.3 °F 47.3 °F 29.97 in WNW 1.2 mph   80 % 0.00 in
21:54 52.5 °F 46.8 °F 29.97 in Calm     81 % 0.00 in
22:00 52.0 °F 46.7 °F 29.96 in Calm     82 % 0.00 in
22:04 51.8 °F 46.8 °F 29.96 in Calm     83 % 0.00 in
22:10 51.4 °F 46.4 °F 29.96 in Calm     83 % 0.00 in
22:15 51.2 °F 46.5 °F 29.96 in Calm     84 % 0.00 in
22:20 51.1 °F 46.4 °F 29.95 in Calm     84 % 0.00 in
22:25 51.1 °F 46.4 °F 29.95 in Calm     84 % 0.00 in
22:30 51.0 °F 46.3 °F 29.95 in Calm     84 % 0.00 in
22:35 50.9 °F 46.6 °F 29.96 in Calm     85 % 0.00 in
22:40 50.9 °F 46.6 °F 29.96 in Calm     85 % 0.00 in
22:45 51.0 °F 46.6 °F 29.96 in Calm     85 % 0.00 in
22:50 51.1 °F 46.7 °F 29.96 in Calm     85 % 0.00 in
22:55 51.0 °F 46.6 °F 29.96 in Calm     85 % 0.00 in
23:00 50.7 °F 46.4 °F 29.96 in Calm     85 % 0.00 in
23:05 50.5 °F 46.5 °F 29.96 in Calm     86 % 0.00 in
23:10 50.5 °F 46.5 °F 29.96 in Calm     86 % 0.00 in
23:15 50.6 °F 46.6 °F 29.96 in Calm     86 % 0.00 in
23:20 50.6 °F 46.6 °F 29.96 in Calm     86 % 0.00 in
23:25 50.5 °F 46.5 °F 29.96 in Calm     86 % 0.00 in
23:30 50.5 °F 46.8 °F 29.96 in Calm     87 % 0.00 in
23:35 50.6 °F 46.6 °F 29.96 in Calm     86 % 0.00 in
23:40 50.9 °F 46.9 °F 29.96 in Calm     86 % 0.00 in
23:45 51.4 °F 47.0 °F 29.96 in Calm     85 % 0.00 in
23:50 51.7 °F 47.0 °F 29.96 in Calm     84 % 0.00 in
23:55 51.6 °F 46.9 °F 29.96 in Calm     84 % 0.00 in
Park Place, Exeter, Tulare County, California, USA
Compliments of Weather Underground - 2.75 mb